Tucson, AZ

6:09 AM MST on February 07, 2016 (GMT -0700)
Sun City Oro Valley | | Change Station
CLOSE
Current Station
Personal Weather Station
Location: Oro Valley, AZ
Elevation: 3041 ft
Nearby Weather Stations

Elev 3041 ft 32.47 °N, 110.95 °W | Updated 4 minutes ago

Clear
Clear
44.8 °F
Feels Like 40 °F
N
8.0
Wind Variable Wind from NW
Gusts 15.0 mph

Today
High -- | Low -- °F
--% Chance of Precip.
Yesterday
High -- | Low -- °F
Precip. -- in
Pressure 30.13 in
Visibility 10.0 miles
Clouds Clear
Windchill 40 °F
Dew Point Not available.
Humidity Not available.
Rainfall Not available.
Snow Depth Not available.
7:14 AM 6:02 PM
Waning Crescent, 2% visible
METAR KDMA 071258Z AUTO 01002KT 10SM CLR 07/M12 A3018 RMK AO2 SLP203 T00711121 $
Pressure 30.13 in
Visibility 10.0 miles
Clouds Clear
Windchill 40 °F
Dew Point Not available.
Humidity Not available.
Rainfall Not available.
Snow Depth Not available.
7:14 AM 6:02 PM
Waning Crescent, 2% visible
METAR KDMA 071258Z AUTO 01002KT 10SM CLR 07/M12 A3018 RMK AO2 SLP203 T00711121 $

10-Day Weather Forecast

Almanac

Astronomy

Feb. 07, 2016 Rise Set
Actual Time
Civil Twilight
Nautical Twilight
Astronomical Twilight
Moon
Length of Visible Light
Length of Day
Tomorrow will be .
, % of the Moon is Illuminated

Today's Extremes

State Highs State Lows

Community

WunderPhotos

Upload Photos

1,891,189 photos uploaded!

WunderBlog® & News

Nearby

Air Quality

  Air Quality AQ Index Pollutant
Not available.

Snow Depth

Station Depth Elevation

Earthquake Activity

City Distance Mag. Time & Date
Minimum magnitude displayed is 2.5.

Coastal Water Temperatures

Place Temperature

Stations

Nearby Weather Stations

Station Location Temp. Windchill Dew Point Humidity Wind Precip. Elev Updated Type
                   

Watches & Warnings

There are currently no watches in effect.